Time;durP1;ratioP1;P1;durP2;ratioP2;P2;SDS_P1;SDS_P2;PMS_P1;PMS_P2;Temp;Humidity;BMP_temperature;BMP_pressure;BME280_temperature;BME280_humidity;BME280_pressure;Samples;Min_cycle;Max_cycle;Signal;HPM_P1;HPM_P2
2022/01/10 00:01:46;;;;;;;49.28;29.42;;;1.20;91.60;;;;;;5014028;28;20037;-73
2022/01/10 00:04:13;;;;;;;44.95;24.98;;;1.20;91.60;;;;;;5013132;28;20022;-73
2022/01/10 00:06:39;;;;;;;39.33;22.52;;;1.20;91.60;;;;;;5016465;28;20680;-73
2022/01/10 00:09:05;;;;;;;35.70;20.23;;;1.30;91.60;;;;;;5018607;28;20118;-73
2022/01/10 00:11:31;;;;;;;29.77;19.27;;;1.30;91.60;;;;;;5021020;28;20052;-73
2022/01/10 00:13:57;;;;;;;28.77;19.67;;;1.30;91.60;;;;;;5014153;28;20033;-73
2022/01/10 00:16:23;;;;;;;34.13;20.35;;;1.30;91.70;;;;;;5015623;28;20034;-75
2022/01/10 00:18:49;;;;;;;38.25;21.13;;;1.30;91.70;;;;;;5022012;28;20046;-74
2022/01/10 00:21:16;;;;;;;32.63;20.58;;;1.30;91.70;;;;;;5021452;28;20048;-76
2022/01/10 00:23:42;;;;;;;36.53;21.77;;;1.30;91.80;;;;;;5014985;28;20052;-73
2022/01/10 00:26:08;;;;;;;34.28;21.17;;;1.30;91.80;;;;;;5019019;28;20543;-72
2022/01/10 00:28:34;;;;;;;29.27;20.02;;;1.40;91.80;;;;;;5019620;28;20030;-74
2022/01/10 00:31:00;;;;;;;35.25;20.42;;;1.30;91.80;;;;;;5014091;28;20087;-73
2022/01/10 00:33:26;;;;;;;30.65;20.70;;;1.30;91.80;;;;;;5019710;28;20679;-73
2022/01/10 00:35:52;;;;;;;31.67;21.02;;;1.40;91.80;;;;;;5016259;28;20042;-73
2022/01/10 00:38:18;;;;;;;34.95;21.77;;;1.30;91.80;;;;;;5018214;28;20076;-73
2022/01/10 00:40:48;;;;;;;38.85;22.50;;;1.30;91.90;;;;;;5019577;28;20025;-75
2022/01/10 00:43:18;;;;;;;36.40;22.63;;;1.30;91.90;;;;;;5027750;28;20092;-74
2022/01/10 00:45:44;;;;;;;34.30;21.90;;;1.30;92.00;;;;;;5006552;28;20033;-73
2022/01/10 00:48:11;;;;;;;36.95;23.98;;;1.30;92.00;;;;;;5018380;28;20465;-75
2022/01/10 00:50:37;;;;;;;38.03;23.70;;;1.30;92.10;;;;;;5001540;28;20454;-74
2022/01/10 00:53:03;;;;;;;41.13;26.25;;;1.30;92.10;;;;;;5011969;28;20036;-72
2022/01/10 00:55:29;;;;;;;39.13;25.85;;;1.30;92.20;;;;;;5018506;28;20034;-73
2022/01/10 00:57:56;;;;;;;38.17;26.38;;;1.30;92.10;;;;;;5010200;28;20159;-73
2022/01/10 01:00:22;;;;;;;48.47;29.25;;;1.30;92.10;;;;;;5018426;28;20451;-74
2022/01/10 01:02:49;;;;;;;50.00;30.60;;;1.30;92.20;;;;;;5019196;28;20034;-74
2022/01/10 01:05:18;;;;;;;46.40;31.88;;;1.40;92.20;;;;;;5020920;28;20052;-74
2022/01/10 01:07:44;;;;;;;53.15;33.65;;;1.40;92.20;;;;;;5012558;28;20029;-75
2022/01/10 01:15:44;;;;;;;46.25;29.88;;;1.30;92.10;;;;;;5018036;28;20037;-76
2022/01/10 01:18:18;;;;;;;46.70;28.63;;;1.30;92.10;;;;;;5009430;28;20033;-78
2022/01/10 01:23:59;;;;;;;39.90;28.23;;;1.30;92.10;;;;;;5018853;28;20103;-74
2022/01/10 01:26:15;;;;;;;43.13;30.35;;;1.20;92.20;;;;;;5016416;28;20140;-74
2022/01/10 01:28:40;;;;;;;46.50;31.45;;;1.20;92.20;;;;;;5015909;28;20129;-72
2022/01/10 01:31:06;;;;;;;41.03;27.13;;;1.20;92.20;;;;;;5013358;28;20038;-72
2022/01/10 01:33:32;;;;;;;43.20;28.13;;;1.10;92.10;;;;;;5021360;28;20037;-71
2022/01/10 01:35:58;;;;;;;40.00;28.63;;;1.10;92.10;;;;;;5019019;28;20026;-71
2022/01/10 01:38:25;;;;;;;39.08;26.70;;;1.10;92.20;;;;;;5014598;28;20033;-74
2022/01/10 01:41:09;;;;;;;43.50;28.73;;;1.10;92.20;;;;;;5015286;28;20033;-74
2022/01/10 01:43:36;;;;;;;40.25;29.23;;;1.10;92.20;;;;;;5009336;28;20117;-74
2022/01/10 01:46:02;;;;;;;40.40;29.55;;;1.10;92.20;;;;;;5010298;28;20022;-74
2022/01/10 01:48:28;;;;;;;48.28;29.50;;;1.10;92.30;;;;;;5005647;28;20037;-73
2022/01/10 01:50:54;;;;;;;47.95;29.30;;;1.10;92.30;;;;;;5015245;28;20053;-74
2022/01/10 01:53:20;;;;;;;41.83;29.58;;;1.10;92.30;;;;;;5019439;28;20128;-74
2022/01/10 01:55:46;;;;;;;45.88;29.20;;;1.00;92.30;;;;;;5014177;28;20122;-74
2022/01/10 01:58:12;;;;;;;41.55;28.73;;;1.10;92.30;;;;;;5016728;28;20045;-76
2022/01/10 02:00:38;;;;;;;45.05;30.35;;;1.10;92.30;;;;;;5015673;28;20103;-73
2022/01/10 02:03:04;;;;;;;47.88;32.53;;;1.00;92.30;;;;;;5011519;28;20100;-73
2022/01/10 02:05:30;;;;;;;47.33;32.90;;;1.00;92.40;;;;;;5012859;28;20031;-74
2022/01/10 02:07:56;;;;;;;46.33;31.77;;;1.00;92.40;;;;;;5015036;28;20041;-73
2022/01/10 02:10:23;;;;;;;43.58;30.13;;;1.00;92.40;;;;;;5013871;28;20029;-73
2022/01/10 02:12:49;;;;;;;47.70;33.38;;;1.00;92.40;;;;;;5031453;28;20033;-74
2022/01/10 02:15:36;;;;;;;40.80;29.77;;;1.00;92.30;;;;;;5048892;28;20036;-76
2022/01/10 02:18:02;;;;;;;46.40;33.42;;;1.00;92.40;;;;;;5011546;28;20045;-76
2022/01/10 02:20:32;;;;;;;40.63;29.90;;;0.90;92.30;;;;;;5019597;28;20733;-74
2022/01/10 02:22:58;;;;;;;40.42;30.50;;;1.00;92.40;;;;;;5020436;28;20061;-74
2022/01/10 02:25:25;;;;;;;51.67;34.58;;;1.00;92.50;;;;;;5010610;28;20033;-75
2022/01/10 02:27:51;;;;;;;52.70;35.70;;;1.00;92.50;;;;;;5010444;28;20022;-74
2022/01/10 02:30:17;;;;;;;48.35;34.03;;;1.00;92.50;;;;;;5008607;28;20065;-73
2022/01/10 02:32:44;;;;;;;49.72;35.28;;;1.00;92.60;;;;;;5018556;28;20112;-74
2022/01/10 02:35:21;;;;;;;56.92;37.80;;;1.00;92.60;;;;;;5015195;28;20040;-79
2022/01/10 02:37:48;;;;;;;57.40;38.97;;;0.90;92.50;;;;;;5018475;28;20113;-74
2022/01/10 02:40:15;;;;;;;48.75;35.85;;;1.00;92.50;;;;;;5004420;28;20167;-74
2022/01/10 02:42:41;;;;;;;48.67;35.28;;;1.00;92.50;;;;;;5021843;28;20034;-74
2022/01/10 02:45:08;;;;;;;55.63;37.63;;;1.00;92.50;;;;;;5010860;28;20186;-76
2022/01/10 02:47:33;;;;;;;50.17;35.83;;;1.00;92.40;;;;;;5019441;28;20045;-74
2022/01/10 02:49:59;;;;;;;49.55;34.88;;;1.00;92.30;;;;;;5020905;28;20033;-74
2022/01/10 02:52:25;;;;;;;48.28;36.33;;;1.00;92.30;;;;;;5012012;28;20111;-74
2022/01/10 02:54:51;;;;;;;56.90;37.03;;;1.10;92.30;;;;;;5020026;28;20228;-73
2022/01/10 02:57:17;;;;;;;47.90;35.08;;;1.10;92.30;;;;;;5016105;28;20069;-73
2022/01/10 02:59:44;;;;;;;54.25;35.65;;;1.00;92.20;;;;;;5014640;28;20029;-74
2022/01/10 03:02:11;;;;;;;54.28;35.17;;;1.00;92.20;;;;;;5015996;28;20373;-74
2022/01/10 03:04:37;;;;;;;50.25;33.10;;;1.00;92.20;;;;;;5011348;28;20124;-73
2022/01/10 03:07:04;;;;;;;50.20;36.00;;;0.90;92.20;;;;;;5007203;28;20033;-73
2022/01/10 03:09:30;;;;;;;45.78;33.20;;;0.90;92.20;;;;;;5017044;28;20496;-73
2022/01/10 03:11:56;;;;;;;45.08;33.13;;;0.80;92.20;;;;;;5029034;28;20041;-74
2022/01/10 03:14:22;;;;;;;42.88;33.50;;;0.80;92.20;;;;;;5014852;28;20022;-73
2022/01/10 03:16:48;;;;;;;51.95;35.85;;;0.80;92.30;;;;;;5015568;28;20042;-73
2022/01/10 03:19:14;;;;;;;49.35;34.97;;;0.80;92.30;;;;;;5018118;28;20521;-72
2022/01/10 03:21:40;;;;;;;48.47;33.45;;;0.80;92.40;;;;;;5025508;28;20036;-72
2022/01/10 03:24:06;;;;;;;51.97;36.08;;;0.70;92.40;;;;;;5014713;28;20034;-73
2022/01/10 03:26:32;;;;;;;44.47;32.67;;;0.70;92.40;;;;;;5012772;28;20038;-73
2022/01/10 03:28:58;;;;;;;43.25;32.03;;;0.70;92.50;;;;;;5017968;28;20613;-73
2022/01/10 03:31:24;;;;;;;42.65;33.15;;;0.70;92.50;;;;;;5004585;28;20389;-73
2022/01/10 03:33:50;;;;;;;42.35;32.15;;;0.60;92.50;;;;;;5014846;28;20045;-73
2022/01/10 03:36:16;;;;;;;52.53;34.00;;;0.70;92.60;;;;;;5010761;28;20053;-72
2022/01/10 03:38:42;;;;;;;47.58;35.38;;;0.70;92.60;;;;;;5010663;28;20152;-73
2022/01/10 03:41:09;;;;;;;49.15;35.45;;;0.70;92.60;;;;;;5024719;28;20445;-74
2022/01/10 03:43:35;;;;;;;52.05;35.05;;;0.70;92.70;;;;;;5010384;28;20029;-73
2022/01/10 03:46:01;;;;;;;49.17;34.50;;;0.60;92.60;;;;;;5019893;28;20038;-74
2022/01/10 03:48:27;;;;;;;47.35;32.85;;;0.60;92.60;;;;;;5019068;28;20132;-73
2022/01/10 03:50:53;;;;;;;48.05;32.00;;;0.60;92.70;;;;;;5023205;28;20464;-75
2022/01/10 03:53:20;;;;;;;46.83;32.63;;;0.60;92.60;;;;;;5001386;28;20465;-75
2022/01/10 03:55:46;;;;;;;45.78;32.90;;;0.60;92.70;;;;;;5018311;28;20037;-73
2022/01/10 03:58:12;;;;;;;47.67;33.28;;;0.60;92.60;;;;;;5017828;28;20084;-73
2022/01/10 04:00:38;;;;;;;39.65;30.80;;;0.50;92.50;;;;;;5012224;28;20050;-73
2022/01/10 04:03:06;;;;;;;46.17;31.88;;;0.50;92.50;;;;;;5011075;28;20072;-73
2022/01/10 04:05:33;;;;;;;42.65;31.17;;;0.50;92.50;;;;;;5013890;28;20374;-72
2022/01/10 04:07:59;;;;;;;42.00;32.35;;;0.50;92.50;;;;;;5019775;28;20048;-72
2022/01/10 04:10:25;;;;;;;43.13;31.73;;;0.40;92.50;;;;;;5009896;28;20068;-74
2022/01/10 04:12:52;;;;;;;41.85;32.05;;;0.40;92.50;;;;;;5020335;28;20045;-73
2022/01/10 04:15:18;;;;;;;44.50;31.25;;;0.40;92.50;;;;;;5015368;28;20095;-74
2022/01/10 04:17:44;;;;;;;47.30;31.85;;;0.40;92.50;;;;;;5016780;28;20042;-72
2022/01/10 04:20:10;;;;;;;46.22;32.10;;;0.30;92.60;;;;;;5020990;28;20096;-75
2022/01/10 04:22:36;;;;;;;44.35;30.77;;;0.30;92.60;;;;;;5023050;28;20065;-75
2022/01/10 04:25:04;;;;;;;44.53;30.90;;;0.30;92.60;;;;;;5024827;28;20120;-72
2022/01/10 04:27:32;;;;;;;41.65;31.20;;;0.20;92.60;;;;;;5029334;28;20029;-72
2022/01/10 04:29:59;;;;;;;50.47;32.45;;;0.30;92.70;;;;;;5020310;28;20040;-74
2022/01/10 04:32:28;;;;;;;46.13;31.75;;;0.30;92.70;;;;;;5020903;28;20037;-73
2022/01/10 04:34:54;;;;;;;45.05;30.40;;;0.30;92.70;;;;;;5020761;28;20052;-73
2022/01/10 04:37:20;;;;;;;47.65;31.88;;;0.30;92.80;;;;;;5017547;28;20403;-73
2022/01/10 04:39:47;;;;;;;47.88;35.08;;;0.30;92.80;;;;;;5017234;28;20453;-76
2022/01/10 04:42:13;;;;;;;51.67;34.08;;;0.40;92.80;;;;;;5011203;28;20103;-73
2022/01/10 04:44:40;;;;;;;44.83;31.45;;;0.40;92.90;;;;;;5034456;28;20452;-73
2022/01/10 04:47:06;;;;;;;51.00;31.85;;;0.30;92.80;;;;;;5015159;28;20141;-75
2022/01/10 04:49:44;;;;;;;49.08;33.70;;;0.40;92.90;;;;;;5011661;28;20048;-74
2022/01/10 04:52:10;;;;;;;47.65;32.63;;;0.30;92.90;;;;;;5017331;28;20033;-75
2022/01/10 04:54:36;;;;;;;45.42;31.20;;;0.40;92.90;;;;;;5023890;28;20035;-73
2022/01/10 04:57:02;;;;;;;45.08;30.50;;;0.30;92.90;;;;;;5013750;28;20045;-73
2022/01/10 04:59:27;;;;;;;42.30;29.67;;;0.40;92.90;;;;;;5011188;28;20427;-73
2022/01/10 05:01:53;;;;;;;43.20;30.20;;;0.30;92.90;;;;;;5011396;28;20137;-74
2022/01/10 05:04:18;;;;;;;42.30;30.02;;;0.30;92.90;;;;;;5024151;28;20075;-72
2022/01/10 05:06:45;;;;;;;40.78;29.05;;;0.20;92.90;;;;;;5017018;28;20433;-73
2022/01/10 05:09:11;;;;;;;44.45;31.52;;;0.20;92.90;;;;;;5018751;28;20457;-72
2022/01/10 05:11:39;;;;;;;49.00;32.67;;;0.20;93.00;;;;;;5031626;28;20053;-72
2022/01/10 05:14:05;;;;;;;45.33;29.77;;;0.20;93.00;;;;;;5022113;28;20025;-74
2022/01/10 05:16:31;;;;;;;45.13;30.02;;;0.30;93.10;;;;;;5016656;28;20039;-74
2022/01/10 05:18:56;;;;;;;44.50;29.90;;;0.10;93.20;;;;;;5032977;28;20432;-74
2022/01/10 05:21:22;;;;;;;44.30;30.13;;;0.10;93.30;;;;;;5014915;28;20041;-73
2022/01/10 05:23:48;;;;;;;41.75;29.48;;;0.10;93.40;;;;;;5017898;28;20034;-72
2022/01/10 05:26:14;;;;;;;41.70;29.17;;;0.10;93.30;;;;;;5017154;28;20030;-72
2022/01/10 05:28:39;;;;;;;38.25;27.55;;;0.00;93.30;;;;;;5015617;28;20067;-73
2022/01/10 05:31:05;;;;;;;36.95;26.05;;;0.00;93.30;;;;;;5026105;28;20041;-72
2022/01/10 05:33:31;;;;;;;39.22;27.33;;;0.00;93.30;;;;;;5019506;28;20049;-73
2022/01/10 05:35:56;;;;;;;43.38;30.10;;;0.00;93.40;;;;;;5011170;28;20029;-73
2022/01/10 05:38:22;;;;;;;37.42;27.67;;;0.00;93.40;;;;;;5018282;28;20421;-73
2022/01/10 05:40:48;;;;;;;38.47;30.00;;;0.00;93.40;;;;;;5017852;28;20418;-76
2022/01/10 05:43:14;;;;;;;41.95;29.98;;;0.00;93.50;;;;;;5011546;28;20029;-73
2022/01/10 05:45:43;;;;;;;38.55;29.00;;;-3276.70;93.40;;;;;;5006181;28;20042;-73
2022/01/10 05:48:12;;;;;;;40.08;27.10;;;-3276.70;93.50;;;;;;5018989;28;20041;-73
2022/01/10 05:50:41;;;;;;;38.03;28.50;;;-3276.70;93.50;;;;;;5019057;28;20037;-72
2022/01/10 05:53:08;;;;;;;42.35;28.55;;;-3276.70;93.50;;;;;;5033203;28;20139;-74
2022/01/10 05:55:36;;;;;;;47.53;30.42;;;-3276.60;93.50;;;;;;5015422;28;20041;-73
2022/01/10 05:58:03;;;;;;;43.03;30.20;;;-3276.60;93.50;;;;;;5009474;28;20041;-72
2022/01/10 06:00:29;;;;;;;42.05;28.52;;;-3276.60;93.60;;;;;;5022550;28;20091;-72
2022/01/10 06:02:54;;;;;;;41.97;30.73;;;-3276.60;93.60;;;;;;5029409;28;20465;-73
2022/01/10 06:05:20;;;;;;;46.63;31.63;;;-3276.60;93.60;;;;;;5020432;28;20029;-75
2022/01/10 06:07:46;;;;;;;53.13;36.65;;;-3276.60;93.60;;;;;;5015532;28;20037;-73
2022/01/10 06:10:12;;;;;;;63.28;42.00;;;-3276.70;93.80;;;;;;5009677;28;20046;-73
2022/01/10 06:12:38;;;;;;;56.05;39.03;;;0.00;94.00;;;;;;5031906;28;20038;-73
2022/01/10 06:15:04;;;;;;;50.92;36.17;;;0.00;94.00;;;;;;5011236;28;20030;-73
2022/01/10 06:17:30;;;;;;;53.42;35.42;;;0.00;94.00;;;;;;5016274;28;20568;-73
2022/01/10 06:19:55;;;;;;;53.65;35.85;;;0.00;94.00;;;;;;5008768;28;20042;-74
2022/01/10 06:22:21;;;;;;;55.30;37.05;;;0.00;94.00;;;;;;5014614;28;20228;-75
2022/01/10 06:24:47;;;;;;;50.25;34.83;;;0.00;94.00;;;;;;5036297;28;20092;-73
2022/01/10 06:27:13;;;;;;;59.65;38.17;;;0.00;94.00;;;;;;5015491;28;20025;-73
2022/01/10 06:29:38;;;;;;;48.13;34.33;;;0.00;94.00;;;;;;5019936;28;20500;-75
2022/01/10 06:32:04;;;;;;;54.55;36.03;;;0.00;94.00;;;;;;5017095;28;20030;-72
2022/01/10 06:34:30;;;;;;;53.67;36.53;;;0.00;94.00;;;;;;5012254;28;20056;-73
2022/01/10 06:36:56;;;;;;;53.88;35.90;;;0.00;94.00;;;;;;5017387;28;20045;-74
2022/01/10 06:39:22;;;;;;;49.65;35.95;;;0.00;94.00;;;;;;5014997;28;20041;-73
2022/01/10 06:41:47;;;;;;;53.00;35.20;;;0.00;94.10;;;;;;5017377;28;20046;-73
2022/01/10 06:44:13;;;;;;;44.53;31.60;;;0.00;94.10;;;;;;5020043;28;20033;-73
2022/01/10 06:46:39;;;;;;;48.90;31.58;;;0.00;94.10;;;;;;5010008;28;20525;-73
2022/01/10 06:49:04;;;;;;;52.25;34.22;;;0.00;94.10;;;;;;5012072;28;20034;-73
2022/01/10 06:51:30;;;;;;;43.72;32.72;;;0.00;94.10;;;;;;5013435;28;20432;-74
2022/01/10 06:53:55;;;;;;;55.38;36.83;;;0.00;94.10;;;;;;5013402;28;20033;-75
2022/01/10 06:56:21;;;;;;;56.78;37.17;;;0.00;94.20;;;;;;5018433;28;20091;-74
2022/01/10 06:58:47;;;;;;;56.70;35.65;;;0.00;94.20;;;;;;5018610;28;20440;-73
2022/01/10 07:01:17;;;;;;;50.63;35.33;;;0.00;94.20;;;;;;5016806;28;20563;-73
2022/01/10 07:03:44;;;;;;;51.20;33.35;;;0.00;94.20;;;;;;5019477;28;20547;-73
2022/01/10 07:06:09;;;;;;;55.78;35.20;;;0.00;94.20;;;;;;5013903;28;20100;-73
2022/01/10 07:08:35;;;;;;;51.53;32.85;;;0.00;94.20;;;;;;5016849;28;20457;-72
2022/01/10 07:11:01;;;;;;;56.15;34.10;;;0.00;94.20;;;;;;5014576;28;20029;-73
2022/01/10 07:13:26;;;;;;;63.67;37.90;;;0.00;94.30;;;;;;5021629;28;20560;-72
2022/01/10 07:15:52;;;;;;;61.30;38.40;;;0.00;94.30;;;;;;5020329;28;20082;-73
2022/01/10 07:18:18;;;;;;;55.63;37.40;;;0.10;94.30;;;;;;5029366;28;20051;-74
2022/01/10 07:20:44;;;;;;;69.40;38.88;;;0.10;94.40;;;;;;5033265;28;20030;-75
2022/01/10 07:23:09;;;;;;;61.85;40.13;;;0.10;94.30;;;;;;5018735;28;20516;-75
2022/01/10 07:25:36;;;;;;;77.43;38.20;;;0.10;94.30;;;;;;5018467;28;20038;-75
2022/01/10 07:28:02;;;;;;;62.60;36.58;;;0.20;94.20;;;;;;5013872;28;20085;-74
2022/01/10 07:30:28;;;;;;;56.08;35.55;;;0.10;94.20;;;;;;5014287;28;20120;-75
2022/01/10 07:32:53;;;;;;;100.30;37.55;;;0.20;94.00;;;;;;5018356;28;20042;-75
2022/01/10 07:35:20;;;;;;;59.80;37.03;;;0.10;93.90;;;;;;5016032;28;20140;-76
2022/01/10 07:37:45;;;;;;;72.80;39.38;;;0.10;93.90;;;;;;5003419;28;20042;-75
2022/01/10 07:40:11;;;;;;;51.05;33.83;;;0.10;93.90;;;;;;5008858;28;20472;-77
2022/01/10 07:42:37;;;;;;;68.82;35.95;;;0.10;93.80;;;;;;5008714;28;20144;-76
2022/01/10 07:45:06;;;;;;;53.05;34.70;;;0.10;93.80;;;;;;5006856;28;20464;-75
2022/01/10 07:47:32;;;;;;;52.65;33.00;;;0.10;93.80;;;;;;5006113;28;20038;-74
2022/01/10 07:49:58;;;;;;;83.25;34.92;;;0.10;93.70;;;;;;5019624;28;20026;-75
2022/01/10 07:52:25;;;;;;;50.88;31.83;;;0.10;93.80;;;;;;5015152;28;20048;-74
2022/01/10 07:54:51;;;;;;;48.53;30.10;;;0.10;93.70;;;;;;5032445;28;20388;-77
2022/01/10 07:57:16;;;;;;;62.88;34.22;;;0.10;93.70;;;;;;5020751;28;20384;-74
2022/01/10 07:59:43;;;;;;;64.30;31.80;;;0.20;93.70;;;;;;5019972;28;20045;-75
2022/01/10 08:02:10;;;;;;;53.08;31.08;;;0.20;93.70;;;;;;5015217;28;20064;-75
2022/01/10 08:04:36;;;;;;;49.35;30.10;;;0.20;93.70;;;;;;5023656;28;20548;-78
2022/01/10 08:07:03;;;;;;;93.05;32.72;;;0.20;93.80;;;;;;5020237;28;20112;-78
2022/01/10 08:09:28;;;;;;;64.07;30.40;;;0.30;93.80;;;;;;5020870;28;20029;-74
2022/01/10 08:11:59;;;;;;;121.95;34.40;;;0.20;93.70;;;;;;5019090;28;20514;-74
2022/01/10 08:14:27;;;;;;;99.55;30.73;;;0.20;93.70;;;;;;5013525;28;20050;-77
2022/01/10 08:16:53;;;;;;;99.07;32.83;;;0.20;93.80;;;;;;5005505;28;20033;-74
2022/01/10 08:19:19;;;;;;;85.07;32.65;;;0.20;93.80;;;;;;5015524;28;20041;-75
2022/01/10 08:21:44;;;;;;;49.97;30.48;;;0.30;93.90;;;;;;5026253;28;20096;-74
2022/01/10 08:24:11;;;;;;;55.20;30.80;;;0.40;93.90;;;;;;5019723;28;20960;-82
2022/01/10 08:26:37;;;;;;;60.33;31.10;;;0.40;93.90;;;;;;5014505;28;20033;-77
2022/01/10 08:29:03;;;;;;;62.42;32.15;;;0.40;93.90;;;;;;5029258;28;20048;-77
2022/01/10 08:31:29;;;;;;;66.68;29.83;;;0.40;93.90;;;;;;5013474;28;20068;-74
2022/01/10 08:33:54;;;;;;;63.42;30.05;;;0.40;93.90;;;;;;5016139;28;20042;-77
2022/01/10 08:36:20;;;;;;;57.25;27.52;;;0.50;93.90;;;;;;5014226;28;20049;-76
2022/01/10 08:38:46;;;;;;;56.83;27.00;;;0.50;93.90;;;;;;5010636;28;20049;-77
2022/01/10 08:41:12;;;;;;;61.83;28.73;;;0.50;93.90;;;;;;5017148;28;20061;-76
2022/01/10 08:43:38;;;;;;;70.80;27.10;;;0.50;93.80;;;;;;4998859;28;20026;-73
2022/01/10 08:46:05;;;;;;;72.72;29.48;;;0.40;93.60;;;;;;5011424;28;20488;-80
2022/01/10 08:48:31;;;;;;;81.30;28.48;;;0.40;93.60;;;;;;5001173;28;20036;-74
2022/01/10 08:50:57;;;;;;;69.28;27.85;;;0.40;93.70;;;;;;5033988;28;20029;-74
2022/01/10 08:53:23;;;;;;;58.42;27.63;;;0.40;93.70;;;;;;5018392;28;20355;-76
2022/01/10 08:55:50;;;;;;;46.75;26.20;;;0.40;93.80;;;;;;5014906;28;20025;-73
2022/01/10 08:58:15;;;;;;;49.13;24.52;;;0.50;93.90;;;;;;5014415;28;20056;-74
2022/01/10 09:00:41;;;;;;;45.80;24.65;;;0.60;93.80;;;;;;5017864;28;20126;-73
2022/01/10 09:03:07;;;;;;;45.70;23.92;;;0.60;93.80;;;;;;5015217;28;20034;-74
2022/01/10 09:05:33;;;;;;;75.22;30.38;;;0.60;93.70;;;;;;5019136;28;20118;-80
2022/01/10 09:08:00;;;;;;;51.30;29.63;;;0.60;93.70;;;;;;5018104;28;20040;-76
2022/01/10 09:10:26;;;;;;;36.92;23.45;;;0.60;93.70;;;;;;5014370;28;20044;-80
2022/01/10 09:12:53;;;;;;;80.85;42.40;;;0.60;93.60;;;;;;5012934;28;20033;-78
2022/01/10 09:15:19;;;;;;;107.35;70.05;;;0.70;93.60;;;;;;5016187;28;20035;-75
2022/01/10 09:17:44;;;;;;;62.67;31.90;;;0.60;93.50;;;;;;5019264;28;20041;-77
2022/01/10 09:20:10;;;;;;;55.72;25.65;;;0.60;93.50;;;;;;5021868;28;20041;-81
2022/01/10 09:22:36;;;;;;;84.78;25.38;;;0.60;93.40;;;;;;5015541;28;20048;-77
2022/01/10 09:25:03;;;;;;;72.55;26.42;;;0.60;93.40;;;;;;5017269;28;20904;-82
2022/01/10 09:27:28;;;;;;;65.20;24.33;;;0.60;93.50;;;;;;5015826;28;20044;-75
2022/01/10 09:29:55;;;;;;;56.80;25.17;;;0.60;93.50;;;;;;5015067;28;20037;-82
2022/01/10 09:32:21;;;;;;;71.75;25.83;;;0.60;93.60;;;;;;5014417;28;20794;-78
2022/01/10 09:34:46;;;;;;;59.95;26.02;;;0.60;93.50;;;;;;5016099;28;20046;-76
2022/01/10 09:37:12;;;;;;;53.72;25.80;;;0.60;93.60;;;;;;5014039;28;20476;-76
2022/01/10 09:39:38;;;;;;;69.32;27.70;;;0.60;93.60;;;;;;5015295;28;20465;-77
2022/01/10 09:42:04;;;;;;;63.45;27.08;;;0.70;93.50;;;;;;5016002;28;20148;-79
2022/01/10 09:44:30;;;;;;;62.70;26.30;;;0.70;93.60;;;;;;5015762;28;20034;-85
2022/01/10 09:46:56;;;;;;;61.20;25.35;;;0.70;93.50;;;;;;5014517;28;20045;-75
2022/01/10 09:49:22;;;;;;;58.72;23.30;;;0.70;93.40;;;;;;5012226;28;20531;-80
2022/01/10 09:51:48;;;;;;;50.97;24.48;;;0.70;93.50;;;;;;5016774;28;20469;-74
2022/01/10 09:54:14;;;;;;;52.05;22.65;;;0.80;93.50;;;;;;5013579;28;20030;-76
2022/01/10 09:56:40;;;;;;;58.80;24.13;;;0.80;93.50;;;;;;5024495;28;20791;-79
2022/01/10 09:59:07;;;;;;;59.15;24.65;;;0.80;93.40;;;;;;5015100;28;20459;-79
2022/01/10 10:01:34;;;;;;;60.45;22.85;;;0.80;93.30;;;;;;5010428;28;20397;-79
2022/01/10 10:04:01;;;;;;;52.33;21.70;;;0.80;93.20;;;;;;5015076;28;20033;-83
2022/01/10 10:06:29;;;;;;;58.17;23.27;;;0.80;93.20;;;;;;5014800;28;20034;-79
2022/01/10 10:09:06;;;;;;;65.07;23.98;;;0.90;93.30;;;;;;5010693;28;20122;-76
2022/01/10 10:11:47;;;;;;;92.68;29.70;;;0.90;93.30;;;;;;5013588;28;20381;-78
2022/01/10 10:14:17;;;;;;;64.30;26.38;;;1.00;93.30;;;;;;5013749;28;20108;-78
2022/01/10 10:16:49;;;;;;;55.78;25.00;;;1.00;93.30;;;;;;5014402;28;20152;-78
2022/01/10 10:19:17;;;;;;;49.80;23.38;;;0.90;93.30;;;;;;5028063;28;20137;-80
2022/01/10 10:21:43;;;;;;;58.80;24.75;;;1.00;93.40;;;;;;5016148;28;20385;-78
2022/01/10 10:24:09;;;;;;;52.38;23.58;;;1.10;93.30;;;;;;5014807;28;20033;-78
2022/01/10 10:26:35;;;;;;;39.90;20.65;;;1.10;93.30;;;;;;5012213;28;20519;-82
2022/01/10 10:29:01;;;;;;;34.00;16.52;;;1.20;93.30;;;;;;5014924;28;20037;-75
2022/01/10 10:31:32;;;;;;;34.42;16.20;;;1.20;93.20;;;;;;5014784;28;20584;-82
2022/01/10 10:34:01;;;;;;;39.22;17.55;;;1.30;93.20;;;;;;5013733;28;20045;-76
2022/01/10 10:36:29;;;;;;;31.67;16.80;;;1.40;93.20;;;;;;5017977;28;20119;-78
2022/01/10 10:38:55;;;;;;;32.25;15.30;;;1.40;93.00;;;;;;5020916;28;20147;-74
2022/01/10 10:41:21;;;;;;;37.30;16.00;;;1.50;93.10;;;;;;5013658;28;20312;-77
2022/01/10 10:43:50;;;;;;;35.35;16.42;;;1.60;93.20;;;;;;5013653;28;20522;-76
2022/01/10 10:46:18;;;;;;;31.52;14.32;;;1.70;93.00;;;;;;5012316;28;20909;-75
2022/01/10 10:48:49;;;;;;;31.42;15.20;;;1.70;92.90;;;;;;5010907;28;20068;-73
2022/01/10 10:51:16;;;;;;;27.45;14.73;;;1.80;92.90;;;;;;5009707;28;20045;-79
2022/01/10 10:53:42;;;;;;;45.42;14.90;;;1.80;92.90;;;;;;5013712;28;20041;-75
2022/01/10 10:56:08;;;;;;;32.92;15.93;;;1.90;93.00;;;;;;5013891;28;20751;-74
2022/01/10 10:58:34;;;;;;;28.42;14.38;;;2.00;92.90;;;;;;5017365;28;20088;-75
2022/01/10 11:01:01;;;;;;;29.80;15.10;;;2.00;92.90;;;;;;5024663;28;20110;-78
2022/01/10 11:03:27;;;;;;;33.03;16.60;;;2.00;92.90;;;;;;5013693;28;20021;-73
2022/01/10 11:05:57;;;;;;;32.15;14.50;;;2.10;93.00;;;;;;5010943;28;20140;-77
2022/01/10 11:08:27;;;;;;;35.05;15.60;;;2.10;93.00;;;;;;5026756;28;20099;-76
2022/01/10 11:10:53;;;;;;;34.72;13.98;;;2.20;92.90;;;;;;5016762;28;20045;-75
2022/01/10 11:13:21;;;;;;;30.13;13.70;;;2.10;92.90;;;;;;5012082;28;20603;-75
2022/01/10 11:15:48;;;;;;;27.95;14.02;;;2.20;93.00;;;;;;5014622;28;20083;-78
2022/01/10 11:18:15;;;;;;;32.85;14.85;;;2.30;93.10;;;;;;5013768;28;20029;-75
2022/01/10 11:20:48;;;;;;;32.75;14.50;;;2.40;93.10;;;;;;5011772;28;20132;-78
2022/01/10 11:23:14;;;;;;;29.50;13.43;;;2.40;93.00;;;;;;5012442;28;20062;-79
2022/01/10 11:25:42;;;;;;;30.25;13.93;;;2.40;93.10;;;;;;5014368;28;20112;-78
2022/01/10 11:28:11;;;;;;;39.42;13.85;;;2.50;93.10;;;;;;5026148;28;20038;-78
2022/01/10 11:30:44;;;;;;;30.02;13.73;;;2.50;93.00;;;;;;5028503;28;20358;-82
2022/01/10 11:33:15;;;;;;;31.65;14.40;;;2.50;93.00;;;;;;5017835;28;20041;-84
2022/01/10 11:35:51;;;;;;;32.88;15.52;;;2.50;93.10;;;;;;5017830;28;20354;-75
2022/01/10 11:38:17;;;;;;;35.25;15.65;;;2.60;93.20;;;;;;5018825;28;20048;-79
2022/01/10 11:40:43;;;;;;;38.22;17.25;;;2.60;93.20;;;;;;5022153;28;20037;-75
2022/01/10 11:43:33;;;;;;;42.38;15.57;;;2.60;93.20;;;;;;5016138;28;20076;-76
2022/01/10 11:46:19;;;;;;;39.00;16.83;;;2.60;93.30;;;;;;5027429;28;20560;-79
2022/01/10 11:48:50;;;;;;;39.22;17.15;;;2.60;93.30;;;;;;5017272;28;20321;-75
2022/01/10 11:51:23;;;;;;;34.70;17.73;;;2.70;93.30;;;;;;5012304;28;20033;-79
2022/01/10 11:53:51;;;;;;;50.00;20.00;;;2.70;93.30;;;;;;5031046;28;20536;-77
2022/01/10 11:56:27;;;;;;;51.90;19.58;;;2.70;93.30;;;;;;5012995;28;20037;-77
2022/01/10 11:59:12;;;;;;;44.15;20.55;;;2.70;93.20;;;;;;5014429;28;20041;-77
2022/01/10 12:01:41;;;;;;;42.47;18.45;;;2.70;93.30;;;;;;5016561;28;20124;-77
2022/01/10 12:04:07;;;;;;;40.78;18.70;;;2.80;93.50;;;;;;5024345;28;20030;-78
2022/01/10 12:06:33;;;;;;;38.80;18.25;;;2.80;93.40;;;;;;5022564;28;20033;-75
2022/01/10 12:08:59;;;;;;;39.55;17.50;;;2.80;93.40;;;;;;5017603;28;21043;-78
2022/01/10 12:11:27;;;;;;;40.70;18.30;;;2.80;93.40;;;;;;5015095;28;20036;-79
2022/01/10 12:13:54;;;;;;;42.33;20.05;;;2.90;93.40;;;;;;5014721;28;20045;-78
2022/01/10 12:16:21;;;;;;;40.08;19.13;;;2.90;93.30;;;;;;5013440;28;20379;-81
2022/01/10 12:18:48;;;;;;;37.30;19.27;;;2.90;93.30;;;;;;5015089;28;20088;-79
2022/01/10 12:21:14;;;;;;;53.50;23.55;;;3.00;93.40;;;;;;5014049;28;20611;-80
2022/01/10 12:23:41;;;;;;;50.50;22.38;;;3.00;93.40;;;;;;5016891;28;20031;-75
2022/01/10 12:26:08;;;;;;;49.83;23.27;;;3.00;93.30;;;;;;5013315;28;20069;-77
2022/01/10 12:28:34;;;;;;;54.42;24.67;;;3.00;93.30;;;;;;5022274;28;20045;-76
2022/01/10 12:31:02;;;;;;;52.45;23.38;;;3.00;93.30;;;;;;5023221;28;20511;-76
2022/01/10 12:33:30;;;;;;;50.53;23.45;;;3.00;93.20;;;;;;5014225;28;20104;-75
2022/01/10 12:35:57;;;;;;;49.15;22.65;;;2.90;93.10;;;;;;5013507;28;20122;-76
2022/01/10 12:38:24;;;;;;;47.05;21.23;;;2.90;93.20;;;;;;5016915;28;20060;-77
2022/01/10 12:40:54;;;;;;;45.88;22.20;;;2.90;93.00;;;;;;5015174;28;20592;-79
2022/01/10 12:43:21;;;;;;;44.15;20.30;;;2.90;93.20;;;;;;5013924;28;20046;-81